sensor_id;sensor_type;location;lat;lon;timestamp;pressure;altitude;pressure_sealevel;temperature;humidity
78643;BME280;67954;47.618;17.606;2023-06-14T00:00:05;99977.13;;;13.33;75.02
78643;BME280;67954;47.618;17.606;2023-06-14T00:00:36;99972.91;;;13.30;74.72
78643;BME280;67954;47.618;17.606;2023-06-14T00:01:09;99963.81;;;13.31;74.61
78643;BME280;67954;47.618;17.606;2023-06-14T00:01:40;99966.34;;;13.33;74.53
78643;BME280;67954;47.618;17.606;2023-06-14T00:02:11;99963.31;;;13.28;75.05
78643;BME280;67954;47.618;17.606;2023-06-14T00:02:43;99967.84;;;13.27;74.74
78643;BME280;67954;47.618;17.606;2023-06-14T00:03:13;99966.53;;;13.23;74.73
78643;BME280;67954;47.618;17.606;2023-06-14T00:03:47;99965.31;;;13.26;75.19
78643;BME280;67954;47.618;17.606;2023-06-14T00:04:21;99970.38;;;13.29;74.73
78643;BME280;67954;47.618;17.606;2023-06-14T00:04:52;99965.84;;;13.29;75.25
78643;BME280;67954;47.618;17.606;2023-06-14T00:05:23;99966.50;;;13.31;74.80
78643;BME280;67954;47.618;17.606;2023-06-14T00:05:55;99960.09;;;13.32;75.05
78643;BME280;67954;47.618;17.606;2023-06-14T00:06:25;99964.66;;;13.32;74.66
78643;BME280;67954;47.618;17.606;2023-06-14T00:06:56;99963.81;;;13.31;75.29
78643;BME280;67954;47.618;17.606;2023-06-14T00:07:34;99964.66;;;13.32;75.27
78643;BME280;67954;47.618;17.606;2023-06-14T00:08:06;99968.19;;;13.32;74.69
78643;BME280;67954;47.618;17.606;2023-06-14T00:08:38;99970.38;;;13.29;75.05
78643;BME280;67954;47.618;17.606;2023-06-14T00:09:10;99972.06;;;13.30;75.25
78643;BME280;67954;47.618;17.606;2023-06-14T00:09:43;99966.69;;;13.30;75.13
78643;BME280;67954;47.618;17.606;2023-06-14T00:10:14;99963.13;;;13.29;75.19
78643;BME280;67954;47.618;17.606;2023-06-14T00:10:45;99963.31;;;13.28;75.19
78643;BME280;67954;47.618;17.606;2023-06-14T00:11:17;99959.28;;;13.23;74.89
78643;BME280;67954;47.618;17.606;2023-06-14T00:11:47;99968.69;;;13.11;75.43
78643;BME280;67954;47.618;17.606;2023-06-14T00:12:18;99962.28;;;13.12;75.42
78643;BME280;67954;47.618;17.606;2023-06-14T00:12:49;99958.09;;;13.18;75.50
78643;BME280;67954;47.618;17.606;2023-06-14T00:13:21;99956.59;;;13.15;75.85
78643;BME280;67954;47.618;17.606;2023-06-14T00:13:52;99955.03;;;13.13;75.72
78643;BME280;67954;47.618;17.606;2023-06-14T00:14:23;99958.09;;;13.18;75.61
78643;BME280;67954;47.618;17.606;2023-06-14T00:14:54;99954.22;;;13.20;75.60
78643;BME280;67954;47.618;17.606;2023-06-14T00:15:25;99961.16;;;13.23;75.45
78643;BME280;67954;47.618;17.606;2023-06-14T00:15:56;99964.47;;;13.25;75.97
78643;BME280;67954;47.618;17.606;2023-06-14T00:16:28;99964.84;;;13.22;75.55
78643;BME280;67954;47.618;17.606;2023-06-14T00:16:59;99962.84;;;13.24;75.47
78643;BME280;67954;47.618;17.606;2023-06-14T00:17:30;99965.69;;;13.22;75.75
78643;BME280;67954;47.618;17.606;2023-06-14T00:18:02;99961.47;;;13.20;75.34
78643;BME280;67954;47.618;17.606;2023-06-14T00:18:34;99945.47;;;13.18;75.82
78643;BME280;67954;47.618;17.606;2023-06-14T00:19:05;99958.56;;;13.13;75.83
78643;BME280;67954;47.618;17.606;2023-06-14T00:19:37;99949.81;;;13.11;75.59
78643;BME280;67954;47.618;17.606;2023-06-14T00:20:11;99954.19;;;13.12;76.23
78643;BME280;67954;47.618;17.606;2023-06-14T00:20:42;99952.22;;;13.14;76.01
78643;BME280;67954;47.618;17.606;2023-06-14T00:21:13;99954.72;;;13.16;75.82
78643;BME280;67954;47.618;17.606;2023-06-14T00:21:44;99954.56;;;13.17;76.09
78643;BME280;67954;47.618;17.606;2023-06-14T00:22:16;99958.09;;;13.18;75.78
78643;BME280;67954;47.618;17.606;2023-06-14T00:22:46;99958.56;;;13.13;76.09
78643;BME280;67954;47.618;17.606;2023-06-14T00:23:18;99956.59;;;13.15;75.54
78643;BME280;67954;47.618;17.606;2023-06-14T00:23:49;99953.34;;;13.12;76.45
78643;BME280;67954;47.618;17.606;2023-06-14T00:24:20;99956.59;;;13.15;76.13
78643;BME280;67954;47.618;17.606;2023-06-14T00:24:52;99951.88;;;13.17;75.83
78643;BME280;67954;47.618;17.606;2023-06-14T00:25:23;99955.75;;;13.15;75.80
78643;BME280;67954;47.618;17.606;2023-06-14T00:25:54;99959.28;;;13.15;76.06
78643;BME280;67954;47.618;17.606;2023-06-14T00:26:25;99960.97;;;13.16;75.61
78643;BME280;67954;47.618;17.606;2023-06-14T00:26:57;99951.88;;;13.17;75.93
78643;BME280;67954;47.618;17.606;2023-06-14T00:27:27;99951.88;;;13.17;76.09
78643;BME280;67954;47.618;17.606;2023-06-14T00:27:58;99959.13;;;13.09;75.48
78643;BME280;67954;47.618;17.606;2023-06-14T00:28:30;99956.06;;;13.04;75.94
78643;BME280;67954;47.618;17.606;2023-06-14T00:29:01;99958.44;;;12.99;76.24
78643;BME280;67954;47.618;17.606;2023-06-14T00:29:31;99953.53;;;13.02;75.84
78643;BME280;67954;47.618;17.606;2023-06-14T00:30:04;99953.22;;;13.05;75.84
78643;BME280;67954;47.618;17.606;2023-06-14T00:30:35;99955.06;;;13.05;75.97
78643;BME280;67954;47.618;17.606;2023-06-14T00:31:05;99954.56;;;13.09;75.63
78643;BME280;67954;47.618;17.606;2023-06-14T00:31:37;99948.16;;;13.10;75.71
78643;BME280;67954;47.618;17.606;2023-06-14T00:32:08;99951.69;;;13.11;75.94
78643;BME280;67954;47.618;17.606;2023-06-14T00:32:39;99950.50;;;13.13;75.85
78643;BME280;67954;47.618;17.606;2023-06-14T00:33:13;99943.09;;;13.15;75.61
78643;BME280;67954;47.618;17.606;2023-06-14T00:33:44;99954.72;;;13.16;75.91
78643;BME280;67954;47.618;17.606;2023-06-14T00:34:15;99949.50;;;13.14;75.86
78643;BME280;67954;47.618;17.606;2023-06-14T00:34:48;99942.56;;;13.12;75.49
78643;BME280;67954;47.618;17.606;2023-06-14T00:35:19;99945.47;;;13.10;75.29
78643;BME280;67954;47.618;17.606;2023-06-14T00:35:50;99945.09;;;13.13;75.59
78643;BME280;67954;47.618;17.606;2023-06-14T00:36:24;99947.97;;;13.12;75.53
78643;BME280;67954;47.618;17.606;2023-06-14T00:36:55;99941.25;;;13.08;75.91
78643;BME280;67954;47.618;17.606;2023-06-14T00:37:25;99941.91;;;13.10;75.43
78643;BME280;67954;47.618;17.606;2023-06-14T00:37:56;99944.63;;;13.10;75.93
78643;BME280;67954;47.618;17.606;2023-06-14T00:38:28;99947.47;;;13.08;75.52
78643;BME280;67954;47.618;17.606;2023-06-14T00:38:59;99944.78;;;13.08;75.68
78643;BME280;67954;47.618;17.606;2023-06-14T00:39:29;99943.41;;;13.12;75.95
78643;BME280;67954;47.618;17.606;2023-06-14T00:40:01;99941.56;;;13.13;75.48
78643;BME280;67954;47.618;17.606;2023-06-14T00:40:33;99946.47;;;13.09;75.84
78643;BME280;67954;47.618;17.606;2023-06-14T00:41:05;99941.72;;;13.11;76.09
78643;BME280;67954;47.618;17.606;2023-06-14T00:41:36;99945.47;;;13.10;75.46
78643;BME280;67954;47.618;17.606;2023-06-14T00:42:07;99946.47;;;13.09;75.84
78643;BME280;67954;47.618;17.606;2023-06-14T00:42:38;99949.84;;;13.03;75.51
78643;BME280;67954;47.618;17.606;2023-06-14T00:43:10;99947.81;;;13.05;75.98
78643;BME280;67954;47.618;17.606;2023-06-14T00:43:40;99946.28;;;13.03;75.51
78643;BME280;67954;47.618;17.606;2023-06-14T00:44:13;99949.69;;;12.97;75.61
78643;BME280;67954;47.618;17.606;2023-06-14T00:44:47;99949.19;;;12.93;75.61
78643;BME280;67954;47.618;17.606;2023-06-14T00:45:18;99948.50;;;12.91;76.11
78643;BME280;67954;47.618;17.606;2023-06-14T00:45:49;99948.84;;;12.88;76.36
78643;BME280;67954;47.618;17.606;2023-06-14T00:46:21;99946.13;;;12.88;76.06
78643;BME280;67954;47.618;17.606;2023-06-14T00:46:52;99946.31;;;12.86;76.01
78643;BME280;67954;47.618;17.606;2023-06-14T00:47:23;99942.28;;;12.82;75.84
78643;BME280;67954;47.618;17.606;2023-06-14T00:47:56;99939.75;;;12.81;76.01
78643;BME280;67954;47.618;17.606;2023-06-14T00:48:27;99940.06;;;12.86;76.14
78643;BME280;67954;47.618;17.606;2023-06-14T00:49:01;99946.66;;;12.92;76.05
78643;BME280;67954;47.618;17.606;2023-06-14T00:49:33;99945.31;;;12.96;75.90
78643;BME280;67954;47.618;17.606;2023-06-14T00:50:06;99943.47;;;12.96;75.81
78643;BME280;67954;47.618;17.606;2023-06-14T00:50:38;99936.84;;;12.99;76.11
78643;BME280;67954;47.618;17.606;2023-06-14T00:51:11;99938.22;;;12.95;75.95
78643;BME280;67954;47.618;17.606;2023-06-14T00:51:42;99940.91;;;12.86;76.39
78643;BME280;67954;47.618;17.606;2023-06-14T00:52:13;99949.88;;;12.79;76.64
78643;BME280;67954;47.618;17.606;2023-06-14T00:52:45;99943.13;;;12.75;76.46
78643;BME280;67954;47.618;17.606;2023-06-14T00:53:17;99944.63;;;12.77;76.67
78643;BME280;67954;47.618;17.606;2023-06-14T00:53:47;99948.50;;;12.75;76.25
78643;BME280;67954;47.618;17.606;2023-06-14T00:54:18;99945.81;;;12.75;76.81
78643;BME280;67954;47.618;17.606;2023-06-14T00:54:50;99951.19;;;12.75;76.93
78643;BME280;67954;47.618;17.606;2023-06-14T00:55:21;99949.69;;;12.72;76.40
78643;BME280;67954;47.618;17.606;2023-06-14T00:55:52;99947.34;;;12.69;76.88
78643;BME280;67954;47.618;17.606;2023-06-14T00:56:24;99943.97;;;12.67;76.40
78643;BME280;67954;47.618;17.606;2023-06-14T00:56:54;99948.69;;;12.65;76.31
78643;BME280;67954;47.618;17.606;2023-06-14T00:57:26;99946.19;;;12.72;76.45
78643;BME280;67954;47.618;17.606;2023-06-14T00:58:00;99945.97;;;12.73;76.71
78643;BME280;67954;47.618;17.606;2023-06-14T00:58:32;99947.84;;;12.73;76.58
78643;BME280;67954;47.618;17.606;2023-06-14T00:59:03;99946.19;;;12.72;76.80
78643;BME280;67954;47.618;17.606;2023-06-14T00:59:40;99948.88;;;12.72;77.06
78643;BME280;67954;47.618;17.606;2023-06-14T01:00:13;99943.78;;;12.61;76.81
78643;BME280;67954;47.618;17.606;2023-06-14T01:00:44;99946.50;;;12.52;76.93
78643;BME280;67954;47.618;17.606;2023-06-14T01:01:17;99943.31;;;12.57;77.03
78643;BME280;67954;47.618;17.606;2023-06-14T01:01:48;99947.16;;;12.63;76.85
78643;BME280;67954;47.618;17.606;2023-06-14T01:02:19;99944.66;;;12.69;76.47
78643;BME280;67954;47.618;17.606;2023-06-14T01:02:50;99940.94;;;12.70;76.56
78643;BME280;67954;47.618;17.606;2023-06-14T01:03:22;99948.66;;;12.73;76.67
78643;BME280;67954;47.618;17.606;2023-06-14T01:03:53;99944.13;;;12.74;75.86
78643;BME280;67954;47.618;17.606;2023-06-14T01:04:24;99946.50;;;12.69;76.28
78643;BME280;67954;47.618;17.606;2023-06-14T01:04:56;99936.41;;;12.71;75.88
78643;BME280;67954;47.618;17.606;2023-06-14T01:05:29;99938.41;;;12.77;75.65
78643;BME280;67954;47.618;17.606;2023-06-14T01:06:10;99938.91;;;12.80;75.97
78643;BME280;67954;47.618;17.606;2023-06-14T01:06:53;99942.44;;;12.81;76.24
78643;BME280;67954;47.618;17.606;2023-06-14T01:07:46;99939.94;;;12.79;76.48
78643;BME280;67954;47.618;17.606;2023-06-14T01:08:26;99932.03;;;12.70;76.91
78643;BME280;67954;47.618;17.606;2023-06-14T01:09:06;99932.16;;;12.60;76.55
78643;BME280;67954;47.618;17.606;2023-06-14T01:09:49;99929.66;;;12.59;76.62
78643;BME280;67954;47.618;17.606;2023-06-14T01:10:33;99931.69;;;12.57;76.74
78643;BME280;67954;47.618;17.606;2023-06-14T01:11:12;99936.91;;;12.58;76.33
78643;BME280;67954;47.618;17.606;2023-06-14T01:11:53;99938.25;;;12.54;76.98
78643;BME280;67954;47.618;17.606;2023-06-14T01:12:31;99935.03;;;12.50;77.07
78643;BME280;67954;47.618;17.606;2023-06-14T01:13:12;99930.69;;;12.58;76.47
78643;BME280;67954;47.618;17.606;2023-06-14T01:13:46;99933.03;;;12.69;76.72
78643;BME280;67954;47.618;17.606;2023-06-14T01:14:18;99928.31;;;12.71;76.72
78643;BME280;67954;47.618;17.606;2023-06-14T01:14:50;99930.66;;;12.74;76.44
78643;BME280;67954;47.618;17.606;2023-06-14T01:15:23;99932.16;;;12.76;76.65
78643;BME280;67954;47.618;17.606;2023-06-14T01:15:55;99930.47;;;12.75;76.59
78643;BME280;67954;47.618;17.606;2023-06-14T01:16:28;99928.47;;;12.77;76.48
78643;BME280;67954;47.618;17.606;2023-06-14T01:17:00;99923.41;;;12.74;76.36
78643;BME280;67954;47.618;17.606;2023-06-14T01:17:34;99933.00;;;12.77;76.70
78643;BME280;67954;47.618;17.606;2023-06-14T01:18:05;99929.31;;;12.78;76.77
78643;BME280;67954;47.618;17.606;2023-06-14T01:18:38;99924.75;;;12.78;76.43
78643;BME280;67954;47.618;17.606;2023-06-14T01:19:12;99923.91;;;12.78;76.52
78643;BME280;67954;47.618;17.606;2023-06-14T01:19:44;99921.38;;;12.76;76.62
78643;BME280;67954;47.618;17.606;2023-06-14T01:20:16;99926.63;;;12.70;76.51
78643;BME280;67954;47.618;17.606;2023-06-14T01:20:49;99921.72;;;12.73;76.34
78643;BME280;67954;47.618;17.606;2023-06-14T01:21:21;99916.69;;;12.70;76.23
78643;BME280;67954;47.618;17.606;2023-06-14T01:21:52;99921.56;;;12.67;76.42
78643;BME280;67954;47.618;17.606;2023-06-14T01:22:26;99919.88;;;12.74;76.36
78643;BME280;67954;47.618;17.606;2023-06-14T01:22:59;99916.00;;;12.76;76.40
78643;BME280;67954;47.618;17.606;2023-06-14T01:23:30;99919.19;;;12.80;75.88
78643;BME280;67954;47.618;17.606;2023-06-14T01:24:03;99917.84;;;12.84;76.33
78643;BME280;67954;47.618;17.606;2023-06-14T01:24:33;99915.47;;;12.89;76.04
78643;BME280;67954;47.618;17.606;2023-06-14T01:25:06;99911.25;;;12.86;76.20
78643;BME280;67954;47.618;17.606;2023-06-14T01:25:37;99911.75;;;12.90;75.63
78643;BME280;67954;47.618;17.606;2023-06-14T01:26:11;99904.34;;;12.92;76.05
78643;BME280;67954;47.618;17.606;2023-06-14T01:26:43;99910.25;;;12.96;75.78
78643;BME280;67954;47.618;17.606;2023-06-14T01:27:16;99915.81;;;12.94;75.81
78643;BME280;67954;47.618;17.606;2023-06-14T01:27:52;99910.09;;;12.97;75.03
78643;BME280;67954;47.618;17.606;2023-06-14T01:28:24;99909.41;;;12.95;75.96
78643;BME280;67954;47.618;17.606;2023-06-14T01:28:57;99906.03;;;12.93;75.64
78643;BME280;67954;47.618;17.606;2023-06-14T01:29:29;99911.63;;;12.83;75.40
78643;BME280;67954;47.618;17.606;2023-06-14T01:30:04;99914.31;;;12.75;75.79
78643;BME280;67954;47.618;17.606;2023-06-14T01:30:37;99913.47;;;12.75;76.17
78643;BME280;67954;47.618;17.606;2023-06-14T01:31:08;99913.00;;;12.71;75.68
78643;BME280;67954;47.618;17.606;2023-06-14T01:31:39;99911.63;;;12.67;76.40
78643;BME280;67954;47.618;17.606;2023-06-14T01:32:12;99909.09;;;12.66;76.26
78643;BME280;67954;47.618;17.606;2023-06-14T01:32:43;99914.50;;;12.66;76.06
78643;BME280;67954;47.618;17.606;2023-06-14T01:33:18;99920.03;;;12.64;76.14
78643;BME280;67954;47.618;17.606;2023-06-14T01:33:51;99917.19;;;12.58;76.32
78643;BME280;67954;47.618;17.606;2023-06-14T01:34:22;99919.91;;;12.58;76.60
78643;BME280;67954;47.618;17.606;2023-06-14T01:34:53;99922.06;;;12.54;76.76
78643;BME280;67954;47.618;17.606;2023-06-14T01:35:25;99927.63;;;12.52;76.53
78643;BME280;67954;47.618;17.606;2023-06-14T01:35:57;99929.66;;;12.50;76.78
78643;BME280;67954;47.618;17.606;2023-06-14T01:36:28;99932.34;;;12.50;76.71
78643;BME280;67954;47.618;17.606;2023-06-14T01:37:01;99928.13;;;12.48;76.53
78643;BME280;67954;47.618;17.606;2023-06-14T01:37:33;99922.25;;;12.44;76.76
78643;BME280;67954;47.618;17.606;2023-06-14T01:38:07;99940.09;;;12.45;76.67
78643;BME280;67954;47.618;17.606;2023-06-14T01:38:40;99939.06;;;12.38;77.03
78643;BME280;67954;47.618;17.606;2023-06-14T01:39:14;99933.69;;;12.30;76.63
78643;BME280;67954;47.618;17.606;2023-06-14T01:39:47;99929.97;;;12.23;77.21
78643;BME280;67954;47.618;17.606;2023-06-14T01:40:21;99937.03;;;12.24;76.63
78643;BME280;67954;47.618;17.606;2023-06-14T01:40:55;99932.31;;;12.18;77.03
78643;BME280;67954;47.618;17.606;2023-06-14T01:41:28;99940.56;;;12.16;76.92
78643;BME280;67954;47.618;17.606;2023-06-14T01:42:02;99938.56;;;12.19;77.07
78643;BME280;67954;47.618;17.606;2023-06-14T01:42:34;99941.94;;;12.29;76.88
78643;BME280;67954;47.618;17.606;2023-06-14T01:43:07;99936.88;;;12.18;77.33
78643;BME280;67954;47.618;17.606;2023-06-14T01:43:39;99938.72;;;12.17;77.08
78643;BME280;67954;47.618;17.606;2023-06-14T01:44:12;99935.00;;;12.18;77.04
78643;BME280;67954;47.618;17.606;2023-06-14T01:44:45;99942.41;;;12.24;77.15
78643;BME280;67954;47.618;17.606;2023-06-14T01:45:18;99938.72;;;12.25;76.76
78643;BME280;67954;47.618;17.606;2023-06-14T01:45:51;99935.03;;;12.26;76.89
78643;BME280;67954;47.618;17.606;2023-06-14T01:46:25;99938.06;;;12.31;77.41
78643;BME280;67954;47.618;17.606;2023-06-14T01:46:56;99936.88;;;12.34;76.99
78643;BME280;67954;47.618;17.606;2023-06-14T01:47:27;99935.53;;;12.38;77.17
78643;BME280;67954;47.618;17.606;2023-06-14T01:47:59;99941.59;;;12.40;77.28
78643;BME280;67954;47.618;17.606;2023-06-14T01:48:30;99937.06;;;12.40;76.71
78643;BME280;67954;47.618;17.606;2023-06-14T01:49:02;99931.34;;;12.43;76.71
78643;BME280;67954;47.618;17.606;2023-06-14T01:49:34;99929.97;;;12.47;76.61
78643;BME280;67954;47.618;17.606;2023-06-14T01:50:06;99937.22;;;12.47;77.05
78643;BME280;67954;47.618;17.606;2023-06-14T01:50:36;99933.50;;;12.48;76.98
78643;BME280;67954;47.618;17.606;2023-06-14T01:51:08;99936.88;;;12.50;76.38
78643;BME280;67954;47.618;17.606;2023-06-14T01:51:39;99949.19;;;12.52;77.01
78643;BME280;67954;47.618;17.606;2023-06-14T01:52:10;99945.81;;;12.50;76.72
78643;BME280;67954;47.618;17.606;2023-06-14T01:52:42;99950.88;;;12.53;76.94
78643;BME280;67954;47.618;17.606;2023-06-14T01:53:14;99939.25;;;12.53;76.84
78643;BME280;67954;47.618;17.606;2023-06-14T01:53:45;99943.81;;;12.52;76.85
78643;BME280;67954;47.618;17.606;2023-06-14T01:54:17;99934.88;;;12.52;76.55
78643;BME280;67954;47.618;17.606;2023-06-14T01:54:48;99944.81;;;12.51;76.82
78643;BME280;67954;47.618;17.606;2023-06-14T01:55:20;99938.56;;;12.51;76.60
78643;BME280;67954;47.618;17.606;2023-06-14T01:55:52;99936.03;;;12.49;76.94
78643;BME280;67954;47.618;17.606;2023-06-14T01:56:24;99938.41;;;12.52;76.67
78643;BME280;67954;47.618;17.606;2023-06-14T01:56:56;99942.47;;;12.57;76.45
78643;BME280;67954;47.618;17.606;2023-06-14T01:57:28;99951.88;;;12.52;76.73
78643;BME280;67954;47.618;17.606;2023-06-14T01:57:59;99941.78;;;12.55;76.76
78643;BME280;67954;47.618;17.606;2023-06-14T01:58:30;99943.13;;;12.59;76.75
78643;BME280;67954;47.618;17.606;2023-06-14T01:59:01;99944.16;;;12.58;76.92
78643;BME280;67954;47.618;17.606;2023-06-14T01:59:33;99942.09;;;12.60;76.19
78643;BME280;67954;47.618;17.606;2023-06-14T02:00:06;99938.25;;;12.54;76.65
78643;BME280;67954;47.618;17.606;2023-06-14T02:00:40;99942.31;;;12.58;77.13
78643;BME280;67954;47.618;17.606;2023-06-14T02:01:13;99944.97;;;12.50;77.20
78643;BME280;67954;47.618;17.606;2023-06-14T02:01:46;99943.97;;;12.51;77.16
78643;BME280;67954;47.618;17.606;2023-06-14T02:02:17;99934.88;;;12.52;77.06
78643;BME280;67954;47.618;17.606;2023-06-14T02:02:49;99936.22;;;12.56;77.53
78643;BME280;67954;47.618;17.606;2023-06-14T02:03:20;99938.41;;;12.61;77.13
78643;BME280;67954;47.618;17.606;2023-06-14T02:03:51;99940.94;;;12.62;77.13
78643;BME280;67954;47.618;17.606;2023-06-14T02:04:22;99943.13;;;12.67;76.91
78643;BME280;67954;47.618;17.606;2023-06-14T02:04:53;99947.84;;;12.73;77.25
78643;BME280;67954;47.618;17.606;2023-06-14T02:05:27;99942.44;;;12.73;77.20
78643;BME280;67954;47.618;17.606;2023-06-14T02:05:58;99937.25;;;12.71;76.90
78643;BME280;67954;47.618;17.606;2023-06-14T02:06:30;99935.56;;;12.70;77.04
78643;BME280;67954;47.618;17.606;2023-06-14T02:07:01;99941.59;;;12.72;76.62
78643;BME280;67954;47.618;17.606;2023-06-14T02:07:32;99935.72;;;12.77;76.69
78643;BME280;67954;47.618;17.606;2023-06-14T02:08:03;99945.81;;;12.75;76.82
78643;BME280;67954;47.618;17.606;2023-06-14T02:08:36;99941.97;;;12.69;77.07
78643;BME280;67954;47.618;17.606;2023-06-14T02:09:07;99942.63;;;12.71;76.81
78643;BME280;67954;47.618;17.606;2023-06-14T02:09:38;99944.13;;;12.74;76.58
78643;BME280;67954;47.618;17.606;2023-06-14T02:10:10;99942.63;;;12.71;77.06
78643;BME280;67954;47.618;17.606;2023-06-14T02:10:41;99942.81;;;12.70;76.14
78643;BME280;67954;47.618;17.606;2023-06-14T02:11:12;99946.19;;;12.72;76.50
78643;BME280;67954;47.618;17.606;2023-06-14T02:11:43;99940.44;;;12.67;76.58
78643;BME280;67954;47.618;17.606;2023-06-14T02:12:14;99939.94;;;12.71;76.13
78643;BME280;67954;47.618;17.606;2023-06-14T02:12:45;99943.47;;;12.80;76.20
78643;BME280;67954;47.618;17.606;2023-06-14T02:13:17;99943.97;;;12.83;76.09
78643;BME280;67954;47.618;17.606;2023-06-14T02:13:48;99937.56;;;12.84;76.13
78643;BME280;67954;47.618;17.606;2023-06-14T02:14:18;99943.59;;;12.86;75.94
78643;BME280;67954;47.618;17.606;2023-06-14T02:14:50;99942.44;;;12.89;76.59
78643;BME280;67954;47.618;17.606;2023-06-14T02:15:21;99938.41;;;12.93;76.64
78643;BME280;67954;47.618;17.606;2023-06-14T02:15:52;99937.06;;;12.97;76.46
78643;BME280;67954;47.618;17.606;2023-06-14T02:16:24;99934.38;;;12.81;76.06
78643;BME280;67954;47.618;17.606;2023-06-14T02:16:58;99934.72;;;12.70;76.49
78643;BME280;67954;47.618;17.606;2023-06-14T02:17:29;99931.16;;;12.53;76.88
78643;BME280;67954;47.618;17.606;2023-06-14T02:18:01;99927.97;;;12.41;77.67
78643;BME280;67954;47.618;17.606;2023-06-14T02:18:32;99937.41;;;12.45;77.81
78643;BME280;67954;47.618;17.606;2023-06-14T02:19:03;99930.16;;;12.30;77.94
78643;BME280;67954;47.618;17.606;2023-06-14T02:19:35;99932.66;;;12.23;78.28
78643;BME280;67954;47.618;17.606;2023-06-14T02:20:07;99933.69;;;12.30;77.92
78643;BME280;67954;47.618;17.606;2023-06-14T02:20:38;99933.66;;;12.22;78.79
78643;BME280;67954;47.618;17.606;2023-06-14T02:21:10;99933.31;;;12.17;78.09
78643;BME280;67954;47.618;17.606;2023-06-14T02:21:41;99929.28;;;12.13;78.72
78643;BME280;67954;47.618;17.606;2023-06-14T02:22:12;99936.03;;;12.17;78.80
78643;BME280;67954;47.618;17.606;2023-06-14T02:22:45;99931.81;;;12.23;77.93
78643;BME280;67954;47.618;17.606;2023-06-14T02:23:16;99935.00;;;12.18;78.96
78643;BME280;67954;47.618;17.606;2023-06-14T02:23:48;99931.66;;;12.24;77.95
78643;BME280;67954;47.618;17.606;2023-06-14T02:24:20;99929.97;;;12.23;78.33
78643;BME280;67954;47.618;17.606;2023-06-14T02:24:51;99940.03;;;12.21;78.09
78643;BME280;67954;47.618;17.606;2023-06-14T02:25:22;99932.66;;;12.15;78.14
78643;BME280;67954;47.618;17.606;2023-06-14T02:25:53;99926.41;;;12.14;78.04
78643;BME280;67954;47.618;17.606;2023-06-14T02:26:24;99936.34;;;12.22;77.75
78643;BME280;67954;47.618;17.606;2023-06-14T02:26:59;99931.31;;;12.19;77.87
78643;BME280;67954;47.618;17.606;2023-06-14T02:27:30;99935.03;;;12.26;77.85
78643;BME280;67954;47.618;17.606;2023-06-14T02:28:01;99934.50;;;12.23;77.87
78643;BME280;67954;47.618;17.606;2023-06-14T02:28:32;99935.34;;;12.23;78.00
78643;BME280;67954;47.618;17.606;2023-06-14T02:29:04;99925.94;;;12.27;77.83
78643;BME280;67954;47.618;17.606;2023-06-14T02:29:35;99928.13;;;12.32;78.04
78643;BME280;67954;47.618;17.606;2023-06-14T02:30:07;99929.47;;;12.36;77.53
78643;BME280;67954;47.618;17.606;2023-06-14T02:30:39;99930.47;;;12.35;77.71
78643;BME280;67954;47.618;17.606;2023-06-14T02:31:11;99927.28;;;12.39;77.74
78643;BME280;67954;47.618;17.606;2023-06-14T02:31:42;99927.97;;;12.41;77.49
78643;BME280;67954;47.618;17.606;2023-06-14T02:32:13;99928.97;;;12.40;77.29
78643;BME280;67954;47.618;17.606;2023-06-14T02:32:44;99935.88;;;12.43;77.70
78643;BME280;67954;47.618;17.606;2023-06-14T02:33:15;99920.72;;;12.42;77.46
78643;BME280;67954;47.618;17.606;2023-06-14T02:33:48;99915.47;;;12.24;77.88
78643;BME280;67954;47.618;17.606;2023-06-14T02:34:18;99917.50;;;12.22;77.96
78643;BME280;67954;47.618;17.606;2023-06-14T02:34:50;99922.22;;;12.20;78.56
78643;BME280;67954;47.618;17.606;2023-06-14T02:35:23;99919.03;;;12.16;78.93
78643;BME280;67954;47.618;17.606;2023-06-14T02:35:56;99914.63;;;12.24;78.37
78643;BME280;67954;47.618;17.606;2023-06-14T02:36:27;99914.47;;;12.17;78.46
78643;BME280;67954;47.618;17.606;2023-06-14T02:37:00;99922.88;;;12.14;78.60
78643;BME280;67954;47.618;17.606;2023-06-14T02:37:33;99916.28;;;12.00;78.55
78643;BME280;67954;47.618;17.606;2023-06-14T02:38:04;99917.28;;;11.99;79.36
78643;BME280;67954;47.618;17.606;2023-06-14T02:38:35;99920.34;;;12.12;78.87
78643;BME280;67954;47.618;17.606;2023-06-14T02:39:08;99914.28;;;12.10;78.60
78643;BME280;67954;47.618;17.606;2023-06-14T02:39:39;99920.88;;;12.24;78.26
78643;BME280;67954;47.618;17.606;2023-06-14T02:40:11;99925.09;;;12.27;78.00
78643;BME280;67954;47.618;17.606;2023-06-14T02:40:42;99923.25;;;12.27;77.67
78643;BME280;67954;47.618;17.606;2023-06-14T02:41:14;99922.22;;;12.28;77.59
78643;BME280;67954;47.618;17.606;2023-06-14T02:41:44;99925.44;;;12.32;78.04
78643;BME280;67954;47.618;17.606;2023-06-14T02:42:15;99920.06;;;12.32;78.19
78643;BME280;67954;47.618;17.606;2023-06-14T02:42:47;99920.03;;;12.24;78.42
78643;BME280;67954;47.618;17.606;2023-06-14T02:43:18;99925.41;;;12.24;78.11
78643;BME280;67954;47.618;17.606;2023-06-14T02:43:48;99924.72;;;12.22;78.01
78643;BME280;67954;47.618;17.606;2023-06-14T02:44:24;99915.81;;;12.21;77.75
78643;BME280;67954;47.618;17.606;2023-06-14T02:44:56;99916.84;;;12.28;77.85
78643;BME280;67954;47.618;17.606;2023-06-14T02:45:26;99919.69;;;12.35;77.44
78643;BME280;67954;47.618;17.606;2023-06-14T02:45:58;99924.25;;;12.42;77.39
78643;BME280;67954;47.618;17.606;2023-06-14T02:46:29;99916.50;;;12.47;77.80
78643;BME280;67954;47.618;17.606;2023-06-14T02:47:00;99916.69;;;12.46;77.67
78643;BME280;67954;47.618;17.606;2023-06-14T02:47:31;99922.72;;;12.48;77.90
78643;BME280;67954;47.618;17.606;2023-06-14T02:48:03;99923.75;;;12.55;77.01